Latest Weather Observations for Latrobe Valley

IDV60801

Issued at 6:05 pm EDT Saturday 1 November 2014 (issued every 30 minutes, with the page automatically refreshed every 10 minutes)

About weather observations | Map of weather stations | Latest weather observations for VIC | Other Formats
Station Details ID: 085280 Name: LATROBE VALLEY AIRPORT Lat: -38.21 Lon: 146.47 Height: 55.7 m
Data from the previous 72 hours. | See also: Recent months at Latrobe Valley
Date/Time
EDT
Temp
°C
App
Temp
°C
Dew
Point
Rel
Hum
%
Delta-T
°C
Wind Press
QNH
hPa
Press
MSL
hPa
Rain
since 9 am
mm
Dir
 
Spd
km/h
Gust
km/h
Spd
kts
Gust
kts
01/06:00pm 10.9 4.9 7.2 78 1.8 W 28 39 15 21 1008.7 1008.7 3.0
01/05:42pm 9.9 3.8 6.8 81 1.5 W 28 52 15 28 1008.6 1008.6 3.0
01/05:33pm 10.0 5.1 8.3 89 0.8 W 24 32 13 17 1008.6 1008.6 2.8
01/05:30pm 9.7 4.7 8.0 89 0.8 W 24 30 13 16 1008.5 1008.5 2.8
01/05:15pm 9.3 -0.2 6.9 85 1.1 WSW 46 69 25 37 1008.3 1008.3 2.8
01/05:12pm 10.3 1.3 6.6 78 1.7 WSW 43 67 23 36 1008.1 1008.1 2.8
01/05:00pm 12.8 4.4 5.7 62 3.3 W 39 54 21 29 1007.4 1007.3 2.8
01/04:54pm 13.6 6.0 7.4 66 3.0 WSW 37 56 20 30 1007.3 1007.2 2.8
01/04:30pm 11.6 3.2 7.5 76 2.0 SW 41 56 22 30 1007.0 1006.9 2.8
01/04:20pm 11.4 3.2 8.1 80 1.6 SW 41 46 22 25 1006.8 1006.7 2.8
01/04:12pm 11.4 5.6 9.5 88 1.0 W 30 48 16 26 1006.5 1006.4 2.8
01/04:00pm 10.8 6.4 10.5 98 0.2 WNW 24 35 13 19 1006.4 1006.3 2.8
01/03:30pm 10.7 6.9 9.9 95 0.4 WNW 20 28 11 15 1006.2 1006.1 2.6
01/03:08pm 10.9 5.6 9.7 92 0.6 W 28 37 15 20 1005.9 1005.8 2.4
01/03:00pm 10.9 4.8 9.7 92 0.6 W 32 44 17 24 1005.7 1005.6 2.4
01/02:53pm 11.3 6.0 9.9 91 0.7 W 28 39 15 21 1005.6 1005.5 2.2
01/02:49pm 11.1 3.5 9.0 87 1.0 WSW 39 52 21 28 1005.4 1005.3 2.2
01/02:30pm 11.9 8.0 10.8 93 0.6 W 22 32 12 17 1005.4 1005.3 1.6
01/02:25pm 11.3 6.8 10.0 92 0.7 W 24 35 13 19 1005.3 1005.2 1.6
01/02:07pm 11.4 3.7 8.6 83 1.4 WSW 39 65 21 35 1005.0 1004.9 1.4
01/02:04pm 13.6 6.9 8.2 70 2.7 WSW 33 54 18 29 1004.8 1004.7 1.4
01/02:00pm 14.4 8.5 9.2 71 2.7 W 30 43 16 23 1004.7 1004.6 1.4
01/01:39pm 12.5 6.0 10.2 86 1.2 WSW 35 44 19 24 1004.7 1004.6 1.4
01/01:30pm 11.6 3.2 9.7 88 1.0 WSW 44 67 24 36 1004.8 1004.7 1.4
01/01:25pm 11.4 1.7 9.1 86 1.2 WSW 50 74 27 40 1004.7 1004.6 1.4
01/01:19pm 13.1 3.1 7.8 70 2.6 WSW 50 74 27 40 1004.3 1004.2 1.4
01/01:10pm 16.3 9.2 8.0 58 4.2 W 35 54 19 29 1003.6 1003.5 1.4
01/01:00pm 16.0 8.6 8.5 61 3.8 W 37 54 20 29 1003.7 1003.6 1.4
01/12:54pm 16.4 9.9 8.9 61 3.9 W 33 54 18 29 1003.6 1003.5 1.4
01/12:30pm 15.5 8.8 9.8 69 3.0 W 35 48 19 26 1003.9 1003.8 1.4
01/12:00pm 14.1 9.8 10.9 81 1.7 W 24 35 13 19 1003.7 1003.6 1.4
01/11:30am 13.1 8.4 10.6 85 1.3 W 26 37 14 20 1003.6 1003.5 1.4
01/11:08am 12.0 6.8 10.2 89 0.9 WSW 28 52 15 28 1003.6 1003.5 1.4
01/11:02am 12.2 6.1 10.6 90 0.8 WSW 33 48 18 26 1003.5 1003.4 1.4
01/11:00am 12.0 5.9 10.4 90 0.8 WSW 33 48 18 26 1003.5 1003.4 1.4
01/10:49am 12.0 4.1 10.7 92 0.7 WSW 43 56 23 30 1003.2 1003.2 1.4
01/10:42am 11.5 5.3 11.3 99 0.1 WSW 35 56 19 30 1002.9 1002.9 1.4
01/10:30am 12.5 7.6 12.5 100 0.0 WSW 30 41 16 22 1002.7 1002.7 1.2
01/10:19am 12.8 8.7 12.8 100 0.0 WSW 26 35 14 19 1002.5 1002.5 1.2
01/10:12am 12.7 8.6 12.7 100 0.0 W 26 35 14 19 1002.4 1002.4 1.2
01/10:07am 12.7 9.0 12.7 100 0.0 WSW 24 30 13 16 1002.3 1002.3 1.2
01/10:00am 12.7 8.6 12.7 100 0.0 WSW 26 33 14 18 1002.2 1002.2 1.2
01/09:58am 12.8 8.4 12.8 100 0.0 WSW 28 35 15 19 1002.1 1002.1 1.2
01/09:41am 12.9 8.9 12.9 100 0.0 WSW 26 35 14 19 1001.9 1001.9 1.0
01/09:39am 13.2 9.3 13.2 100 0.0 W 26 35 14 19 1001.8 1001.8 0.8
01/09:30am 13.2 9.6 13.2 100 0.0 W 24 32 13 17 1001.8 1001.8 0.6
01/09:00am 13.0 7.9 13.0 100 0.0 W 32 46 17 25 1002.0 1002.0 5.2
01/08:55am 12.9 8.5 12.9 100 0.0 W 28 46 15 25 1002.0 1002.0 5.2
01/08:42am 12.9 7.7 12.9 100 0.0 W 32 43 17 23 1001.5 1001.5 4.8
01/08:30am 13.1 8.0 13.1 100 0.0 WNW 32 43 17 23 1001.3 1001.3 4.2
01/08:14am 13.4 9.2 13.4 100 0.0 W 28 46 15 25 1000.7 1000.7 3.2
01/08:08am 13.6 10.2 13.6 100 0.0 W 24 37 13 20 1000.6 1000.6 2.6
01/08:02am 13.6 9.8 13.6 100 0.0 W 26 37 14 20 1000.4 1000.4 2.2
01/08:00am 13.7 10.3 13.7 100 0.0 W 24 37 13 20 1000.5 1000.5 2.0
01/07:44am 13.8 9.6 13.6 99 0.1 W 28 37 15 20 1000.3 1000.3 1.2
01/07:30am 13.9 9.3 13.4 97 0.3 W 30 39 16 21 1000.3 1000.3 0.8
01/07:00am 14.7 11.5 12.0 84 1.5 WSW 20 24 11 13 999.6 999.5 0.0
01/06:30am 14.4 11.3 11.7 84 1.5 WSW 19 24 10 13 998.3 998.2 0.0
01/06:00am 14.6 11.5 11.7 83 1.6 W 19 24 10 13 998.2 998.1 0.0
01/05:30am 14.6 11.5 11.6 82 1.6 WNW 19 22 10 12 998.1 998.0 0.0
01/05:00am 15.0 10.1 11.4 79 1.9 W 28 43 15 23 997.9 997.8 0.0
01/04:30am 14.4 10.5 12.1 86 1.2 W 24 33 13 18 998.4 998.3 0.0
01/04:00am 14.8 11.2 11.8 82 1.6 W 22 32 12 17 999.2 999.1 0.0
01/03:30am 15.3 11.3 11.7 79 1.9 W 24 33 13 18 999.8 999.8 0.0
01/03:00am 16.4 11.4 11.1 71 2.9 W 28 35 15 19 999.0 998.9 0.0
01/02:30am 17.4 11.8 10.1 62 3.9 W 30 39 16 21 998.5 998.4 0.0
01/02:04am 16.9 11.4 10.7 67 3.3 WSW 30 48 16 26 998.2 998.1 0.0
01/02:00am 17.1 10.7 10.7 66 3.5 WSW 35 48 19 26 998.4 998.3 0.0
01/01:30am 17.4 13.0 10.3 63 3.8 WSW 24 41 13 22 997.7 997.6 0.0
01/01:14am 18.3 12.9 9.4 56 4.7 WSW 28 46 15 25 997.5 997.4 0.0
01/01:00am 17.7 15.4 11.7 68 3.3 SW 15 28 8 15 996.8 996.7 0.0
01/12:46am 18.5 13.4 11.8 65 3.7 SW 30 48 16 26 997.1 997.0 0.0
01/12:42am 16.2 11.0 12.7 80 1.9 WSW 32 39 17 21 997.4 997.3 0.0
01/12:30am 17.1 16.9 11.8 71 2.9 E 4 7 2 4 995.8 995.7 0.0
01/12:00am 17.3 16.5 11.8 70 3.0 E 7 13 4 7 996.4 996.3 0.0
 
Date/Time
EDT
Temp
°C
App
Temp
°C
Dew
Point
Rel
Hum
%
Delta-T
°C
Wind Press
QNH
hPa
Press
MSL
hPa
Rain
since 9 am
mm
Dir
 
Spd
km/h
Gust
km/h
Spd
kts
Gust
kts
31/11:30pm 16.9 15.6 11.4 70 3.0 E 9 13 5 7 997.1 997.0 0.0
31/11:00pm 16.9 15.8 10.7 67 3.3 E 7 9 4 5 997.8 997.7 0.0
31/10:30pm 17.6 16.1 10.5 63 3.8 E 9 15 5 8 998.3 998.2 0.0
31/10:00pm 18.5 16.2 10.6 60 4.3 E 13 20 7 11 998.8 998.7 0.0
31/09:30pm 18.8 16.6 10.9 60 4.3 ENE 13 17 7 9 999.4 999.3 0.0
31/09:00pm 18.8 16.8 11.4 62 4.1 ENE 13 17 7 9 999.7 999.7 0.0
31/08:30pm 20.5 18.4 11.2 55 5.1 ENE 13 20 7 11 1000.0 1000.0 0.0
31/08:00pm 21.7 20.2 13.1 58 5.0 E 13 19 7 10 1000.3 1000.3 0.0
31/07:30pm 24.6 23.5 13.2 49 6.6 E 11 15 6 8 1000.3 1000.3 0.0
31/07:00pm 25.8 24.2 14.0 48 7.0 E 15 20 8 11 1000.6 1000.6 0.0
31/06:30pm 27.2 26.1 14.2 44 7.8 E 13 17 7 9 1000.8 1000.8 0.0
31/06:00pm 27.9 26.8 13.1 40 8.8 ENE 11 15 6 8 1001.1 1001.1 0.0
31/05:30pm 27.8 26.6 14.1 43 8.2 NE 13 17 7 9 1001.2 1001.2 0.0
31/05:00pm 27.7 26.5 15.0 45 7.7 NNE 15 20 8 11 1001.6 1001.6 0.0
31/04:30pm 27.8 27.0 14.1 43 8.2 NE 11 15 6 8 1001.9 1001.9 0.0
31/04:00pm 27.4 26.5 14.8 46 7.7 NE 13 17 7 9 1002.2 1002.2 0.0
31/03:30pm 27.2 27.1 14.9 47 7.4 ENE 9 15 5 8 1002.7 1002.7 0.0
31/03:00pm 26.5 26.5 15.2 49 6.9 NE 9 13 5 7 1003.4 1003.4 0.0
31/02:30pm 25.8 26.4 15.8 54 6.1 E 7 13 4 7 1004.2 1004.2 0.0
31/02:00pm 25.5 26.6 16.6 58 5.5 ENE 6 9 3 5 1004.9 1004.9 0.0
31/01:30pm 23.1 23.5 14.7 59 5.0 ENE 6 9 3 5 1005.7 1005.7 0.0
31/01:00pm 22.7 23.6 16.5 68 3.8 E 7 13 4 7 1006.3 1006.3 0.0
31/12:30pm 21.7 21.7 15.3 67 3.8 SE 9 17 5 9 1007.1 1007.1 0.0
31/12:00pm 20.7 20.5 14.8 69 3.5 ENE 9 13 5 7 1007.5 1007.5 0.0
31/11:30am 18.7 18.0 13.3 71 3.1 NE 9 13 5 7 1008.2 1008.2 0.0
31/11:00am 18.6 17.6 13.5 72 2.9 NE 11 17 6 9 1008.6 1008.6 0.0
31/10:30am 18.0 16.7 12.5 70 3.1 ENE 11 15 6 8 1009.2 1009.2 0.0
31/10:00am 17.4 16.4 12.3 72 2.8 E 9 15 5 8 1009.7 1009.7 0.0
31/09:30am 16.1 14.7 12.1 77 2.2 E 11 15 6 8 1010.0 1010.0 0.0
31/09:00am 15.3 13.8 11.9 80 1.8 E 11 15 6 8 1010.4 1010.4 0.0
31/08:30am 13.1 12.6 12.5 96 0.3 ENE 7 13 4 7 1010.8 1010.8 0.0
31/08:00am 10.5 9.6 10.5 100 0.0 NNE 6 7 3 4 1011.0 1011.0 0.0
31/07:32am 9.1 8.9 9.1 100 0.0 CALM 0 0 0 0 1011.2 1011.2 0.0
31/07:30am 9.1 8.9 9.1 100 0.0 CALM 0 0 0 0 1011.2 1011.2 0.0
31/07:29am 8.8 8.5 8.8 100 0.0 CALM 0 0 0 0 1011.2 1011.2 0.0
31/07:07am 6.6 4.7 6.6 100 0.0 NNE 6 7 3 4 1011.2 1011.2 0.0
31/07:05am 6.4 4.4 6.4 100 0.0 NNE 6 7 3 4 1011.2 1011.2 0.0
31/07:00am 6.3 5.1 6.3 100 0.0 ENE 2 7 1 4 1011.2 1011.2 0.0
31/06:30am 5.4 4.4 5.4 100 0.0 CALM 0 0 0 0 1011.3 1011.3 0.0
31/06:13am 6.2 5.3 6.2 100 0.0 CALM 0 0 0 0 1011.1 1011.1 0.0
31/06:05am 6.3 5.5 6.3 100 0.0 CALM 0 0 0 0 1011.2 1011.2 0.0
31/06:00am 6.4 5.6 6.4 100 0.0 CALM 0 0 0 0 1011.2 1011.2 0.0
31/05:38am 5.6 4.6 5.5 99 0.0 CALM 0 0 0 0 1011.3 1011.3 0.0
31/05:30am 5.4 4.3 5.3 99 0.0 CALM 0 0 0 0 1011.2 1011.2 0.0
31/05:13am 5.7 4.7 5.6 99 0.0 CALM 0 0 0 0 1011.3 1011.3 0.0
31/05:00am 6.4 5.6 6.3 99 0.0 CALM 0 0 0 0 1011.2 1011.2 0.0
31/04:30am 7.5 6.5 7.5 100 0.0 SSW 2 6 1 3 1011.4 1011.4 0.0
31/04:00am 6.8 6.0 6.7 99 0.0 CALM 0 0 0 0 1011.5 1011.5 0.0
31/03:30am 8.3 7.9 8.3 100 0.0 CALM 0 0 0 0 1011.7 1011.7 0.0
31/03:00am 8.4 8.0 8.4 100 0.0 CALM 0 0 0 0 1012.1 1012.1 0.0
31/02:30am 7.5 6.9 7.4 99 0.0 CALM 0 0 0 0 1012.6 1012.6 0.0
31/02:00am 7.6 7.0 7.5 99 0.0 CALM 0 0 0 0 1013.0 1013.0 0.0
31/01:30am 7.6 7.0 7.5 99 0.0 CALM 0 0 0 0 1013.4 1013.3 0.0
31/01:00am 8.2 7.6 7.6 96 0.3 CALM 0 0 0 0 1013.8 1013.7 0.0
31/12:30am 9.5 7.9 8.9 96 0.3 S 7 9 4 5 1014.1 1014.0 0.0
31/12:00am 9.4 8.4 8.8 96 0.3 SSE 4 7 2 4 1014.2 1014.1 0.0
 
Date/Time
EDT
Temp
°C
App
Temp
°C
Dew
Point
Rel
Hum
%
Delta-T
°C
Wind Press
QNH
hPa
Press
MSL
hPa
Rain
since 9 am
mm
Dir
 
Spd
km/h
Gust
km/h
Spd
kts
Gust
kts
30/11:30pm 9.7 9.4 8.8 94 0.4 CALM 0 0 0 0 1014.3 1014.2 0.0
30/11:00pm 9.1 7.7 7.1 87 0.9 SW 4 7 2 4 1014.2 1014.1 0.0
30/10:30pm 11.0 9.2 9.3 89 0.9 ESE 9 11 5 6 1014.3 1014.2 0.0
30/10:00pm 11.2 11.1 9.3 88 1.0 CALM 0 4 0 2 1014.2 1014.1 0.0
30/09:30pm 11.4 9.5 9.1 86 1.2 WSW 9 13 5 7 1014.3 1014.2 0.0
30/09:00pm 12.2 12.1 9.4 83 1.4 CALM 0 0 0 0 1014.1 1014.0 0.0
30/08:30pm 13.4 12.8 9.1 75 2.2 SE 2 7 1 4 1013.8 1013.7 0.0
30/08:00pm 14.3 12.4 9.1 71 2.7 SSW 9 13 5 7 1013.8 1013.7 0.0
30/07:30pm 15.2 12.6 9.3 68 3.0 SSW 13 20 7 11 1013.3 1013.2 0.0
30/07:00pm 16.4 12.5 9.6 64 3.6 SW 20 26 11 14 1012.9 1012.9 0.0
30/06:30pm 17.5 14.1 10.4 63 3.8 SW 19 28 10 15 1012.7 1012.7 0.0
30/06:00pm 18.5 14.2 10.8 61 4.2 SW 24 33 13 18 1012.4 1012.4 0.0
30/05:30pm 18.7 14.1 11.0 61 4.2 SSW 26 39 14 21 1012.3 1012.3 0.0
30/05:00pm 20.1 16.6 12.3 61 4.4 SW 22 30 12 16 1012.2 1012.2 0.0
30/04:30pm 20.9 16.9 11.8 56 5.1 SW 24 35 13 19 1012.0 1012.0 0.0
30/04:00pm 21.0 16.9 11.6 55 5.2 WSW 24 35 13 19 1011.8 1011.8 0.0
30/03:30pm 21.5 18.7 13.2 59 4.8 WSW 20 32 11 17 1011.9 1011.9 0.0
30/03:00pm 20.6 16.9 12.6 60 4.5 W 24 33 13 18 1011.9 1011.9 0.0
30/02:30pm 20.8 16.8 13.0 61 4.4 WNW 26 30 14 16 1012.3 1012.3 0.0
30/02:00pm 20.3 16.4 13.3 64 4.0 W 26 32 14 17 1012.6 1012.6 0.0
30/01:30pm 19.3 16.0 12.8 66 3.7 WSW 22 33 12 18 1012.9 1012.9 0.0
30/01:00pm 19.2 15.1 12.7 66 3.7 WSW 26 37 14 20 1013.3 1013.2 0.0
30/12:30pm 19.2 15.3 13.2 68 3.4 W 26 35 14 19 1013.4 1013.3 0.0
30/12:00pm 19.2 15.3 13.4 69 3.3 W 26 32 14 17 1013.6 1013.5 0.0
30/11:30am 17.2 12.6 11.2 68 3.2 WSW 26 33 14 18 1014.2 1014.1 0.0
30/11:00am 16.9 12.3 11.2 69 3.1 WSW 26 37 14 20 1014.5 1014.4 0.0
30/10:30am 15.9 10.7 10.4 70 2.9 WSW 28 39 15 21 1014.9 1014.9 0.0
30/10:00am 15.5 11.2 10.7 73 2.5 W 24 35 13 19 1015.0 1015.0 0.0
30/09:30am 15.4 11.2 11.0 75 2.3 W 24 33 13 18 1014.8 1014.8 0.0
30/09:00am 15.7 11.9 11.3 75 2.4 WSW 22 33 12 18 1014.9 1014.9 0.0
30/08:30am 15.1 13.3 12.2 83 1.6 WSW 13 19 7 10 1015.0 1015.0 0.0
30/08:00am 14.3 12.8 12.0 86 1.2 W 11 15 6 8 1014.7 1014.7 0.0
30/07:30am 12.6 11.4 11.7 94 0.5 WNW 9 11 5 6 1014.7 1014.7 0.0
30/07:00am 11.6 10.6 11.1 97 0.3 WNW 7 9 4 5 1014.3 1014.2 0.0
30/06:30am 12.0 11.3 11.5 97 0.3 WSW 6 7 3 4 1014.1 1014.0 0.0
30/06:00am 11.9 11.0 11.3 96 0.3 WSW 7 7 4 4 1014.3 1014.2 0.0
30/05:30am 11.8 10.5 11.2 96 0.3 WNW 9 9 5 5 1014.1 1014.0 0.0
30/05:00am 11.7 10.4 11.2 97 0.3 W 9 11 5 6 1014.1 1014.0 0.0
30/04:30am 11.6 10.3 11.3 98 0.2 W 9 9 5 5 1014.0 1013.9 0.0
30/04:00am 11.4 9.7 11.2 99 0.1 WNW 11 13 6 7 1014.3 1014.2 0.0
30/03:30am 10.7 8.3 10.2 97 0.3 W 13 17 7 9 1014.4 1014.3 0.0
30/03:00am 11.0 9.4 10.2 95 0.4 W 9 13 5 7 1014.6 1014.5 0.0
30/02:30am 11.7 9.9 10.8 94 0.5 W 11 13 6 7 1014.8 1014.8 0.0
30/02:00am 12.0 11.2 10.9 93 0.6 SW 6 7 3 4 1015.2 1015.2 0.0
30/01:30am 12.2 12.5 10.9 92 0.7 CALM 0 0 0 0 1015.4 1015.4 0.0
30/01:00am 12.2 12.5 10.8 91 0.7 CALM 0 0 0 0 1015.7 1015.7 0.0
30/12:30am 12.3 12.6 10.9 91 0.7 CALM 0 0 0 0 1015.9 1015.9 0.0
30/12:00am 12.1 12.3 10.5 90 0.8 CALM 0 0 0 0 1016.2 1016.2 0.0
 
Date/Time
EDT
Temp
°C
App
Temp
°C
Dew
Point
Rel
Hum
%
Delta-T
°C
Wind Press
QNH
hPa
Press
MSL
hPa
Rain
since 9 am
mm
Dir
 
Spd
km/h
Gust
km/h
Spd
kts
Gust
kts
29/11:30pm 12.4 11.0 10.8 90 0.8 WSW 9 11 5 6 1016.4 1016.4 0.0
29/11:00pm 12.4 11.3 10.6 89 0.9 WSW 7 11 4 6 1016.4 1016.4 0.0
29/10:30pm 12.1 10.5 10.2 88 1.0 WSW 9 9 5 5 1016.6 1016.6 0.0
29/10:00pm 11.8 10.1 9.9 88 1.0 SW 9 13 5 7 1016.6 1016.6 0.0
29/09:30pm 12.0 9.4 9.4 84 1.3 SW 13 15 7 8 1016.4 1016.4 0.0
29/09:00pm 12.6 10.0 9.4 81 1.6 SW 13 22 7 12 1015.8 1015.8 0.0
29/08:30pm 13.7 10.4 9.4 75 2.2 SW 17 22 9 12 1015.5 1015.5 0.0
29/08:00pm 14.6 11.0 9.8 73 2.5 SW 19 26 10 14 1015.3 1015.3 0.0
29/07:30pm 16.0 12.0 10.3 69 3.0 SW 22 28 12 15 1014.9 1014.9 0.0
29/07:00pm 17.5 13.7 9.9 61 4.0 SW 20 26 11 14 1014.5 1014.4 0.0
29/06:30pm 18.2 14.2 10.6 61 4.1 SW 22 30 12 16 1014.3 1014.2 0.0

Other Formats:

Comma delimited format used in spreadsheet applications
http://www.bom.gov.au/fwo/IDV60801/IDV60801.94891.axf

JavaScript Object Notation format (JSON) in row-major order
http://www.bom.gov.au/fwo/IDV60801/IDV60801.94891.json